Time;durP1;ratioP1;P1;durP2;ratioP2;P2;SDS_P1;SDS_P2;PMS_P1;PMS_P2;Temp;Humidity;BMP_temperature;BMP_pressure;BME280_temperature;BME280_humidity;BME280_pressure;Samples;Min_cycle;Max_cycle;Signal;HPM_P1;HPM_P2
2023/11/24 00:01:09;;;;;;;21.13;3.15;;;6.90;99.90;;;;;;4918273;29;20061;-86
2023/11/24 00:03:36;;;;;;;11.23;2.33;;;6.90;99.90;;;;;;4918166;29;20509;-86
2023/11/24 00:06:03;;;;;;;16.92;2.60;;;6.90;99.90;;;;;;4917846;29;20041;-87
2023/11/24 00:08:30;;;;;;;17.77;2.63;;;6.90;99.90;;;;;;4933950;29;20052;-87
2023/11/24 00:10:58;;;;;;;14.70;3.55;;;6.90;99.90;;;;;;4930923;29;20047;-87
2023/11/24 00:13:25;;;;;;;11.88;2.20;;;6.90;99.90;;;;;;4933514;29;20049;-86
2023/11/24 00:15:51;;;;;;;14.90;2.50;;;6.80;99.90;;;;;;4918452;29;20047;-87
2023/11/24 00:18:21;;;;;;;21.98;2.70;;;6.90;99.90;;;;;;4933791;29;20056;-87
2023/11/24 00:20:47;;;;;;;17.67;2.92;;;6.90;99.90;;;;;;4918328;29;20032;-88
2023/11/24 00:23:15;;;;;;;17.13;3.20;;;6.90;99.90;;;;;;4933829;29;20063;-88
2023/11/24 00:25:42;;;;;;;16.90;2.30;;;6.90;99.90;;;;;;4930675;29;20041;-86
2023/11/24 00:28:09;;;;;;;15.50;2.60;;;7.00;99.90;;;;;;4918002;29;20036;-87
2023/11/24 00:30:35;;;;;;;17.13;2.63;;;6.90;99.90;;;;;;4917823;29;20041;-87
2023/11/24 00:33:02;;;;;;;10.27;2.33;;;6.90;99.90;;;;;;4912708;29;20041;-87
2023/11/24 00:35:31;;;;;;;20.55;2.83;;;7.10;99.90;;;;;;4933646;29;20064;-86
2023/11/24 00:37:57;;;;;;;13.35;2.25;;;6.90;99.90;;;;;;4944669;29;20099;-87
2023/11/24 00:40:24;;;;;;;14.77;2.63;;;6.90;99.90;;;;;;4931992;29;20463;-87
2023/11/24 00:42:50;;;;;;;17.42;3.10;;;6.90;99.90;;;;;;4937498;29;20113;-88
2023/11/24 00:45:18;;;;;;;19.52;2.92;;;6.90;99.90;;;;;;4924652;29;20086;-87
2023/11/24 00:47:44;;;;;;;20.02;2.92;;;7.40;99.90;;;;;;4940182;29;20041;-86
2023/11/24 00:50:11;;;;;;;17.25;3.17;;;6.80;99.90;;;;;;4917695;29;20449;-87
2023/11/24 00:52:38;;;;;;;23.77;3.65;;;6.90;99.90;;;;;;4933302;29;20049;-87
2023/11/24 00:55:05;;;;;;;18.45;2.67;;;6.90;99.90;;;;;;4920314;29;20048;-87
2023/11/24 00:57:32;;;;;;;17.80;2.30;;;6.90;99.90;;;;;;4932877;29;20052;-87
2023/11/24 01:00:00;;;;;;;16.80;2.88;;;7.10;99.90;;;;;;4923648;29;20048;-87
2023/11/24 01:02:26;;;;;;;12.80;2.45;;;6.90;99.90;;;;;;4923781;29;20078;-87
2023/11/24 01:04:53;;;;;;;21.88;3.35;;;7.00;99.90;;;;;;4923997;29;20123;-87
2023/11/24 01:07:20;;;;;;;18.23;2.83;;;6.90;99.90;;;;;;4939524;29;20036;-87
2023/11/24 01:09:46;;;;;;;19.75;3.15;;;7.00;99.90;;;;;;4917514;29;20080;-86
2023/11/24 01:12:14;;;;;;;14.10;2.58;;;6.90;99.90;;;;;;4917387;29;20104;-87
2023/11/24 01:14:41;;;;;;;13.32;2.90;;;7.70;99.90;;;;;;4918869;29;20080;-87
2023/11/24 01:17:07;;;;;;;21.13;2.78;;;7.50;99.90;;;;;;4932692;29;20147;-86
2023/11/24 01:19:34;;;;;;;16.17;2.42;;;6.80;99.90;;;;;;4922644;29;20041;-87
2023/11/24 01:22:01;;;;;;;24.58;3.03;;;7.10;99.90;;;;;;4924228;29;20041;-86
2023/11/24 01:24:27;;;;;;;9.45;2.00;;;7.60;99.90;;;;;;4929294;29;20214;-87
2023/11/24 01:26:54;;;;;;;14.73;2.47;;;6.80;99.90;;;;;;4932524;29;20044;-86
2023/11/24 01:29:21;;;;;;;14.55;1.88;;;6.80;99.90;;;;;;4923543;29;20047;-87
2023/11/24 01:31:47;;;;;;;16.80;2.40;;;6.80;99.90;;;;;;4934930;29;20048;-86
2023/11/24 01:34:14;;;;;;;11.10;1.45;;;7.20;99.90;;;;;;4939846;29;20044;-87
2023/11/24 01:36:42;;;;;;;14.77;1.98;;;7.30;99.90;;;;;;4923475;29;20048;-86
2023/11/24 01:39:12;;;;;;;14.23;2.05;;;6.70;99.90;;;;;;4927680;29;20048;-87
2023/11/24 01:41:40;;;;;;;13.27;2.00;;;6.70;99.90;;;;;;4929005;29;20055;-86
2023/11/24 01:44:08;;;;;;;14.05;2.38;;;7.10;99.90;;;;;;4916552;29;20402;-87
2023/11/24 01:46:34;;;;;;;10.73;1.80;;;7.10;99.90;;;;;;4932607;29;20040;-87
2023/11/24 01:49:03;;;;;;;14.45;2.63;;;7.00;99.90;;;;;;4926026;29;20051;-86
2023/11/24 01:51:29;;;;;;;15.07;2.42;;;6.70;99.90;;;;;;4929246;29;20494;-86
2023/11/24 01:53:57;;;;;;;16.23;2.58;;;7.20;99.90;;;;;;4925296;29;20049;-86
2023/11/24 01:56:23;;;;;;;16.40;2.58;;;6.70;99.90;;;;;;4930662;29;20512;-86
2023/11/24 01:58:54;;;;;;;14.13;1.83;;;6.70;99.90;;;;;;4931658;29;20131;-86
2023/11/24 02:01:28;;;;;;;13.88;2.55;;;6.70;99.90;;;;;;4916516;29;20099;-86
2023/11/24 02:03:58;;;;;;;12.38;1.75;;;6.70;99.90;;;;;;4916524;29;20088;-86
2023/11/24 02:06:24;;;;;;;13.73;1.70;;;6.70;99.90;;;;;;4915544;29;20181;-86
2023/11/24 02:08:51;;;;;;;13.95;2.13;;;7.40;99.90;;;;;;4931670;29;20080;-86
2023/11/24 02:11:18;;;;;;;8.40;1.83;;;7.20;99.90;;;;;;4917332;29;20032;-86
2023/11/24 02:13:48;;;;;;;5.90;1.27;;;7.00;99.90;;;;;;4931373;29;20048;-86
2023/11/24 02:16:15;;;;;;;8.18;1.70;;;6.80;99.90;;;;;;4934478;29;20044;-86
2023/11/24 02:18:42;;;;;;;12.45;1.30;;;6.80;99.90;;;;;;4923552;29;20490;-86
2023/11/24 02:21:09;;;;;;;9.35;1.40;;;6.60;99.90;;;;;;4928217;29;20040;-86
2023/11/24 02:23:36;;;;;;;12.82;2.05;;;6.60;99.90;;;;;;4916046;29;20045;-86
2023/11/24 02:26:03;;;;;;;12.32;2.10;;;6.70;99.90;;;;;;4916167;29;20509;-86
2023/11/24 02:28:30;;;;;;;11.43;1.77;;;6.60;99.90;;;;;;4928070;29;20261;-86
2023/11/24 02:31:00;;;;;;;9.60;1.17;;;6.70;99.90;;;;;;4919308;29;20442;-85
2023/11/24 02:33:27;;;;;;;10.90;1.90;;;6.70;99.90;;;;;;4928184;29;20083;-86
2023/11/24 02:35:55;;;;;;;12.98;1.58;;;6.70;99.90;;;;;;4908468;29;20534;-86
2023/11/24 02:38:21;;;;;;;10.13;1.70;;;6.80;99.90;;;;;;4940518;29;20051;-85
2023/11/24 02:40:49;;;;;;;11.45;1.80;;;6.80;99.90;;;;;;4934143;29;20048;-87
2023/11/24 02:43:16;;;;;;;16.33;1.92;;;7.00;99.90;;;;;;4937994;29;20047;-86
2023/11/24 02:45:43;;;;;;;15.75;1.92;;;6.80;99.90;;;;;;4925797;29;20040;-86
2023/11/24 02:48:10;;;;;;;14.95;2.00;;;7.40;99.90;;;;;;4934092;29;20505;-86
2023/11/24 02:50:37;;;;;;;9.98;1.27;;;6.80;99.90;;;;;;4924904;29;20040;-86
2023/11/24 02:53:04;;;;;;;14.35;1.77;;;6.80;99.90;;;;;;4915459;29;20765;-86
2023/11/24 02:55:31;;;;;;;8.27;1.75;;;7.00;99.90;;;;;;4915400;29;20040;-86
2023/11/24 02:57:58;;;;;;;5.35;1.27;;;6.80;99.90;;;;;;4930945;29;20735;-87
2023/11/24 03:00:24;;;;;;;7.85;1.33;;;6.70;99.90;;;;;;4930764;29;20037;-86
2023/11/24 03:02:51;;;;;;;9.40;1.20;;;6.80;99.90;;;;;;4927701;29;20049;-86
2023/11/24 03:05:18;;;;;;;6.32;1.10;;;6.20;99.90;;;;;;4931162;29;20052;-86
2023/11/24 03:07:44;;;;;;;6.65;1.27;;;5.80;99.90;;;;;;4934202;29;20072;-86
2023/11/24 03:10:11;;;;;;;7.28;1.40;;;5.80;99.90;;;;;;4934157;29;20040;-86
2023/11/24 03:12:37;;;;;;;8.82;1.15;;;5.70;99.90;;;;;;4917969;29;20494;-86
2023/11/24 03:15:05;;;;;;;6.60;0.90;;;5.80;99.90;;;;;;4926052;29;20088;-86
2023/11/24 03:17:31;;;;;;;13.75;1.67;;;5.60;99.90;;;;;;4931238;29;20072;-86
2023/11/24 03:19:58;;;;;;;8.95;1.63;;;6.40;99.90;;;;;;4927666;29;20078;-85
2023/11/24 03:22:25;;;;;;;7.50;1.00;;;5.60;99.90;;;;;;4938044;29;20076;-86
2023/11/24 03:24:51;;;;;;;8.50;1.10;;;5.90;99.90;;;;;;4934783;29;20041;-85
2023/11/24 03:27:18;;;;;;;12.30;1.42;;;5.50;99.90;;;;;;4919065;29;20131;-86
2023/11/24 03:29:45;;;;;;;7.40;1.30;;;5.50;99.90;;;;;;4919147;29;20051;-86
2023/11/24 03:32:11;;;;;;;14.98;2.13;;;5.50;99.90;;;;;;4931073;29;20048;-86
2023/11/24 03:34:38;;;;;;;9.10;1.30;;;5.50;99.90;;;;;;4918689;29;20044;-85
2023/11/24 03:37:05;;;;;;;8.95;1.42;;;5.60;99.90;;;;;;4918797;29;20097;-86
2023/11/24 03:39:32;;;;;;;11.38;1.55;;;5.60;99.90;;;;;;4918379;29;20498;-86
2023/11/24 03:41:59;;;;;;;13.35;1.48;;;5.60;99.90;;;;;;4923072;29;20855;-86
2023/11/24 03:44:25;;;;;;;17.30;2.17;;;5.70;99.90;;;;;;4926520;29;20051;-85
2023/11/24 03:46:52;;;;;;;12.80;1.30;;;5.80;99.90;;;;;;4923773;29;20028;-86
2023/11/24 03:49:19;;;;;;;9.27;1.60;;;5.90;99.90;;;;;;4937140;29;20063;-86
2023/11/24 03:51:46;;;;;;;11.30;1.98;;;5.70;99.90;;;;;;4934810;29;20044;-85
2023/11/24 03:54:13;;;;;;;10.48;2.17;;;5.80;99.90;;;;;;4918205;29;20128;-86
2023/11/24 03:56:39;;;;;;;20.13;2.45;;;5.80;99.90;;;;;;4934291;29;20076;-86
2023/11/24 03:59:06;;;;;;;11.70;1.83;;;6.40;99.90;;;;;;4931172;29;20040;-87
2023/11/24 04:01:33;;;;;;;13.57;2.28;;;5.80;99.90;;;;;;4930272;29;20049;-85
2023/11/24 04:04:00;;;;;;;11.93;1.67;;;5.80;99.90;;;;;;4935459;29;20091;-86
2023/11/24 04:06:26;;;;;;;8.55;1.42;;;5.80;99.90;;;;;;4934085;29;20119;-85
2023/11/24 04:08:53;;;;;;;6.47;1.42;;;5.80;99.90;;;;;;4930404;29;20036;-86
2023/11/24 04:11:20;;;;;;;9.25;1.35;;;5.80;99.90;;;;;;4924442;29;20489;-86
2023/11/24 04:13:46;;;;;;;8.50;1.70;;;6.00;99.90;;;;;;4936877;29;20044;-85
2023/11/24 04:16:14;;;;;;;13.57;1.52;;;5.70;99.90;;;;;;4930468;29;20045;-85
2023/11/24 04:18:41;;;;;;;10.25;1.73;;;5.70;99.90;;;;;;4917763;29;20044;-85
2023/11/24 04:21:07;;;;;;;12.32;1.70;;;5.70;99.90;;;;;;4917892;29;20382;-86
2023/11/24 04:23:34;;;;;;;13.23;2.10;;;5.70;99.90;;;;;;4945126;29;20409;-85
2023/11/24 04:26:01;;;;;;;10.02;2.20;;;5.70;99.90;;;;;;4924215;29;20044;-85
2023/11/24 04:28:28;;;;;;;10.38;1.45;;;5.70;99.90;;;;;;4924360;29;20049;-85
2023/11/24 04:30:54;;;;;;;11.45;2.10;;;6.30;99.90;;;;;;4910726;29;20120;-85
2023/11/24 04:33:21;;;;;;;9.90;1.40;;;5.80;99.90;;;;;;4947268;29;20104;-85
2023/11/24 04:35:48;;;;;;;10.02;1.60;;;5.80;99.90;;;;;;4930418;29;20144;-86
2023/11/24 04:38:15;;;;;;;10.50;1.40;;;5.80;99.90;;;;;;4929774;29;20044;-85
2023/11/24 04:40:42;;;;;;;15.60;1.63;;;6.20;99.90;;;;;;4917665;29;20040;-86
2023/11/24 04:43:09;;;;;;;9.30;1.33;;;5.80;99.90;;;;;;4918811;29;20055;-85
2023/11/24 04:45:36;;;;;;;8.80;1.58;;;5.80;99.90;;;;;;4928824;29;20049;-85
2023/11/24 04:48:02;;;;;;;14.95;2.28;;;5.80;99.90;;;;;;4918987;29;20494;-86
2023/11/24 04:50:29;;;;;;;12.50;1.90;;;5.80;99.90;;;;;;4936333;29;20051;-86
2023/11/24 04:52:56;;;;;;;10.77;1.63;;;5.80;99.90;;;;;;4923213;29;20051;-87
2023/11/24 04:55:22;;;;;;;17.55;1.63;;;6.20;99.90;;;;;;4940996;29;20552;-87
2023/11/24 04:57:50;;;;;;;15.95;1.98;;;6.60;99.90;;;;;;4920820;29;20045;-87
2023/11/24 05:00:18;;;;;;;11.82;1.88;;;5.80;99.90;;;;;;4919166;29;20075;-86
2023/11/24 05:02:45;;;;;;;9.98;1.70;;;5.80;99.90;;;;;;4925798;29;20072;-87
2023/11/24 05:05:14;;;;;;;11.52;1.70;;;6.50;99.90;;;;;;4927506;29;20403;-86
2023/11/24 05:07:40;;;;;;;10.80;1.60;;;5.70;99.90;;;;;;4917206;29;20041;-87
2023/11/24 05:10:07;;;;;;;7.38;1.40;;;5.70;99.90;;;;;;4926005;29;20204;-86
2023/11/24 05:12:35;;;;;;;13.93;1.85;;;5.70;99.90;;;;;;4932777;29;20127;-86
2023/11/24 05:15:08;;;;;;;11.13;1.55;;;5.60;99.90;;;;;;4932670;29;20041;-86
2023/11/24 05:17:35;;;;;;;9.25;1.48;;;5.60;99.90;;;;;;4945263;29;20044;-86
2023/11/24 05:20:03;;;;;;;12.05;1.80;;;5.60;99.90;;;;;;4926094;29;20068;-86
2023/11/24 05:22:29;;;;;;;12.38;1.77;;;5.60;99.90;;;;;;4919885;29;20136;-86
2023/11/24 05:24:57;;;;;;;10.20;2.13;;;5.70;99.90;;;;;;4932726;29;20154;-87
2023/11/24 05:27:24;;;;;;;10.18;1.58;;;5.60;99.90;;;;;;4916660;29;20383;-86
2023/11/24 05:29:51;;;;;;;9.77;1.65;;;5.60;99.90;;;;;;4916778;29;20417;-87
2023/11/24 05:32:17;;;;;;;9.05;1.20;;;5.60;99.90;;;;;;4911138;29;20127;-87
2023/11/24 05:34:44;;;;;;;4.95;1.08;;;5.70;99.90;;;;;;4927933;29;20413;-87
2023/11/24 05:37:10;;;;;;;6.07;1.00;;;5.60;99.90;;;;;;4922671;29;20040;-86
2023/11/24 05:39:37;;;;;;;7.32;1.42;;;5.50;99.90;;;;;;4924040;29;20064;-87
2023/11/24 05:42:05;;;;;;;4.10;1.02;;;5.40;99.90;;;;;;4921066;29;20055;-86
2023/11/24 05:44:32;;;;;;;6.28;1.10;;;5.40;99.90;;;;;;4923443;29;20095;-86
2023/11/24 05:46:59;;;;;;;15.13;1.73;;;5.80;99.90;;;;;;4916868;29;20044;-86
2023/11/24 05:49:25;;;;;;;9.55;1.23;;;5.40;99.90;;;;;;4928732;29;20055;-86
2023/11/24 05:51:52;;;;;;;7.03;1.20;;;5.30;99.90;;;;;;4950766;29;20040;-86
2023/11/24 05:54:19;;;;;;;11.35;1.83;;;5.30;99.90;;;;;;4923102;29;20053;-86
2023/11/24 05:56:45;;;;;;;10.75;2.28;;;5.40;99.90;;;;;;4927947;29;20545;-87
2023/11/24 05:59:12;;;;;;;10.95;1.80;;;5.30;99.90;;;;;;4917500;29;20048;-87
2023/11/24 06:01:38;;;;;;;8.35;1.48;;;5.30;99.90;;;;;;4927818;29;20060;-87
2023/11/24 06:04:05;;;;;;;12.48;1.50;;;5.30;99.90;;;;;;4915674;29;20041;-86
2023/11/24 06:06:32;;;;;;;7.47;1.48;;;5.20;99.90;;;;;;4944372;29;20044;-86
2023/11/24 06:08:59;;;;;;;10.82;1.70;;;5.90;99.90;;;;;;4931831;29;20040;-87
2023/11/24 06:11:25;;;;;;;8.35;1.90;;;5.30;99.90;;;;;;4928334;29;20115;-88
2023/11/24 06:13:53;;;;;;;9.15;1.70;;;5.20;99.90;;;;;;4922480;29;20056;-87
2023/11/24 06:16:20;;;;;;;7.43;1.45;;;5.10;99.90;;;;;;4917333;29;20052;-86
2023/11/24 06:18:47;;;;;;;9.93;1.60;;;5.00;99.90;;;;;;4927710;29;20118;-87
2023/11/24 06:21:14;;;;;;;12.20;1.38;;;5.40;99.90;;;;;;4916488;29;20072;-87
2023/11/24 06:23:40;;;;;;;7.03;1.52;;;4.90;99.90;;;;;;4926835;29;20044;-87
2023/11/24 06:26:08;;;;;;;7.85;1.23;;;4.90;99.90;;;;;;4919339;29;20047;-86
2023/11/24 06:28:35;;;;;;;8.18;1.20;;;5.50;99.90;;;;;;4932437;29;20040;-87
2023/11/24 06:31:03;;;;;;;7.88;1.20;;;4.80;99.90;;;;;;4933621;29;20064;-86
2023/11/24 06:33:29;;;;;;;7.93;1.60;;;4.80;99.90;;;;;;4918026;29;20037;-87
2023/11/24 06:35:56;;;;;;;6.07;1.10;;;4.70;99.90;;;;;;4915219;29;20047;-86
2023/11/24 06:38:22;;;;;;;6.43;1.10;;;5.70;99.90;;;;;;4920035;29;20092;-86
2023/11/24 06:40:49;;;;;;;6.13;1.15;;;4.70;99.90;;;;;;4919002;29;20044;-86
2023/11/24 06:43:15;;;;;;;13.40;1.58;;;5.30;99.90;;;;;;4919625;29;20044;-87
2023/11/24 06:45:44;;;;;;;8.57;2.13;;;5.50;99.90;;;;;;4914995;29;20068;-86
2023/11/24 06:48:11;;;;;;;11.50;1.50;;;4.70;99.90;;;;;;4920075;29;20752;-86
2023/11/24 06:50:37;;;;;;;7.43;0.98;;;4.70;99.90;;;;;;4931220;29;20040;-87
2023/11/24 06:53:04;;;;;;;10.48;1.55;;;4.80;99.90;;;;;;4917572;29;20040;-87
2023/11/24 06:55:30;;;;;;;8.00;1.27;;;5.60;99.90;;;;;;4913078;29;20051;-86
2023/11/24 06:57:58;;;;;;;10.75;1.48;;;4.80;99.90;;;;;;4916893;29;20044;-86
2023/11/24 07:00:25;;;;;;;16.35;2.40;;;4.80;99.90;;;;;;4921524;29;20493;-87
2023/11/24 07:02:52;;;;;;;8.13;1.40;;;5.60;99.90;;;;;;4923630;29;20131;-86
2023/11/24 07:05:19;;;;;;;15.48;1.83;;;4.80;99.90;;;;;;4916109;29;20072;-87
2023/11/24 07:07:46;;;;;;;15.15;2.03;;;4.80;99.90;;;;;;4919971;29;20387;-87
2023/11/24 07:10:16;;;;;;;14.50;1.70;;;5.20;99.90;;;;;;4918476;29;20051;-86
2023/11/24 07:12:43;;;;;;;8.18;1.60;;;4.80;99.90;;;;;;4944085;29;20048;-86
2023/11/24 07:15:11;;;;;;;11.50;1.67;;;4.80;99.90;;;;;;4931023;29;20047;-86
2023/11/24 07:17:38;;;;;;;11.27;1.80;;;4.80;99.90;;;;;;4945929;29;20415;-87
2023/11/24 07:20:11;;;;;;;13.68;1.63;;;4.90;99.90;;;;;;4918483;29;20036;-86
2023/11/24 07:22:39;;;;;;;11.63;1.98;;;4.90;99.90;;;;;;4934200;29;20044;-86
2023/11/24 07:25:07;;;;;;;9.75;1.85;;;5.00;99.90;;;;;;4924699;29;20036;-86
2023/11/24 07:27:33;;;;;;;13.80;1.70;;;5.00;99.90;;;;;;4922104;29;20041;-86
2023/11/24 07:30:01;;;;;;;10.98;1.80;;;5.40;99.90;;;;;;4928093;29;20040;-86
2023/11/24 07:32:29;;;;;;;9.95;1.80;;;5.70;99.90;;;;;;4923605;29;20405;-84
2023/11/24 07:34:56;;;;;;;10.80;2.00;;;5.30;99.90;;;;;;4922917;29;20127;-86
2023/11/24 07:37:23;;;;;;;13.38;1.73;;;5.10;99.90;;;;;;4916544;29;20128;-86
2023/11/24 07:39:50;;;;;;;10.93;2.05;;;5.10;99.90;;;;;;4919236;29;20083;-84
2023/11/24 07:42:17;;;;;;;9.75;1.42;;;5.10;99.90;;;;;;4936028;29;20068;-84
2023/11/24 07:44:44;;;;;;;15.13;1.60;;;5.20;99.90;;;;;;4920939;29;20041;-86
2023/11/24 07:47:14;;;;;;;9.25;1.30;;;5.10;99.90;;;;;;4916804;29;20040;-86
2023/11/24 07:49:41;;;;;;;10.02;1.80;;;5.00;99.90;;;;;;4926190;29;20044;-87
2023/11/24 07:52:08;;;;;;;12.63;1.75;;;5.70;99.90;;;;;;4917800;29;20052;-86
2023/11/24 07:54:34;;;;;;;17.67;1.77;;;5.10;99.90;;;;;;4914897;29;20045;-86
2023/11/24 07:57:01;;;;;;;10.95;1.80;;;5.30;99.90;;;;;;4930339;29;20041;-85
2023/11/24 07:59:28;;;;;;;9.25;1.45;;;5.70;99.90;;;;;;4914399;29;20124;-86
2023/11/24 08:01:55;;;;;;;11.48;1.67;;;5.10;99.90;;;;;;4918723;29;20075;-86
2023/11/24 08:04:22;;;;;;;10.10;1.85;;;5.10;99.90;;;;;;4934438;29;20033;-86
2023/11/24 08:06:49;;;;;;;18.98;2.10;;;5.60;99.90;;;;;;4933633;29;20417;-86
2023/11/24 08:09:16;;;;;;;15.60;1.77;;;5.10;99.90;;;;;;4929790;29;20044;-85
2023/11/24 08:11:44;;;;;;;9.13;1.65;;;5.10;99.90;;;;;;4924908;29;20037;-85
2023/11/24 08:14:11;;;;;;;11.70;2.28;;;5.20;99.90;;;;;;4924012;29;20486;-86
2023/11/24 08:16:37;;;;;;;9.52;2.20;;;5.90;99.90;;;;;;4945744;29;20095;-86
2023/11/24 08:19:04;;;;;;;12.75;2.47;;;5.40;99.90;;;;;;4943520;29;20067;-86
2023/11/24 08:21:31;;;;;;;18.17;2.58;;;5.40;99.90;;;;;;4924663;29;20048;-86
2023/11/24 08:23:57;;;;;;;16.38;2.15;;;5.40;99.90;;;;;;4930910;29;20051;-86
2023/11/24 08:26:24;;;;;;;12.55;1.88;;;5.50;99.90;;;;;;4928129;29;20088;-87
2023/11/24 08:28:51;;;;;;;16.17;2.10;;;5.80;99.90;;;;;;4926105;29;20044;-85
2023/11/24 08:31:21;;;;;;;14.75;1.83;;;5.50;99.90;;;;;;4908452;29;20040;-87
2023/11/24 08:33:50;;;;;;;17.38;2.95;;;6.00;99.90;;;;;;4921772;29;20063;-87
2023/11/24 08:36:17;;;;;;;14.05;1.77;;;5.40;99.90;;;;;;4936544;29;20083;-87
2023/11/24 08:38:44;;;;;;;14.48;2.22;;;5.40;99.90;;;;;;4919221;29;20040;-87
2023/11/24 08:41:13;;;;;;;13.45;2.67;;;5.60;99.90;;;;;;4927362;29;20048;-87
2023/11/24 08:43:40;;;;;;;11.38;2.42;;;6.30;99.90;;;;;;4951117;29;20036;-88
2023/11/24 08:46:10;;;;;;;10.65;2.03;;;6.00;99.90;;;;;;4936565;29;20044;-86
2023/11/24 08:48:39;;;;;;;11.05;1.70;;;6.00;99.90;;;;;;4905532;29;20047;-87
2023/11/24 08:51:07;;;;;;;17.55;2.38;;;5.70;99.90;;;;;;4944758;29;20071;-87
2023/11/24 08:53:34;;;;;;;10.38;1.75;;;5.60;99.90;;;;;;4922021;29;20046;-88
2023/11/24 08:56:04;;;;;;;11.80;2.50;;;5.50;99.90;;;;;;4924065;29;20071;-87
2023/11/24 08:58:31;;;;;;;10.07;1.73;;;5.50;99.90;;;;;;4921354;29;20136;-87
2023/11/24 09:00:58;;;;;;;9.55;1.30;;;5.60;99.90;;;;;;4925059;29;20064;-87
2023/11/24 09:03:25;;;;;;;10.27;1.50;;;6.50;99.90;;;;;;4943928;29;20040;-87
2023/11/24 09:06:00;;;;;;;9.77;1.70;;;5.60;99.90;;;;;;4927909;29;20616;-86
2023/11/24 09:08:27;;;;;;;13.75;1.80;;;6.40;99.90;;;;;;4922375;29;20033;-87
2023/11/24 09:10:54;;;;;;;5.90;1.15;;;5.70;99.90;;;;;;4923111;29;20418;-88
2023/11/24 09:13:22;;;;;;;7.10;1.30;;;5.80;99.90;;;;;;4916609;29;20052;-87
2023/11/24 09:15:49;;;;;;;16.08;1.67;;;6.30;99.90;;;;;;4933259;29;20040;-89
2023/11/24 09:18:16;;;;;;;14.82;2.17;;;6.70;99.90;;;;;;4919236;29;20130;-89
2023/11/24 09:20:45;;;;;;;9.68;1.85;;;5.70;99.90;;;;;;4935947;29;20577;-87
2023/11/24 09:23:20;;;;;;;11.60;1.80;;;6.70;99.90;;;;;;4935227;29;20047;-87
2023/11/24 09:25:53;;;;;;;9.30;1.80;;;5.70;99.90;;;;;;4917539;29;20044;-87
2023/11/24 09:28:27;;;;;;;13.80;2.78;;;5.70;99.90;;;;;;4920092;29;20099;-89
2023/11/24 09:30:57;;;;;;;10.85;1.65;;;6.40;99.90;;;;;;4927032;29;20784;-88
2023/11/24 09:33:36;;;;;;;14.43;1.88;;;6.80;99.90;;;;;;4919233;29;20041;-89
2023/11/24 09:36:07;;;;;;;11.10;2.22;;;5.90;99.90;;;;;;4905927;29;20049;-89
2023/11/24 09:38:46;;;;;;;13.18;1.67;;;6.10;99.90;;;;;;4917665;29;20075;-89
2023/11/24 09:41:15;;;;;;;15.70;1.70;;;6.60;99.90;;;;;;4917728;29;20044;-90
2023/11/24 09:43:42;;;;;;;10.23;1.45;;;7.10;99.90;;;;;;4929760;29;20048;-90
2023/11/24 09:46:23;;;;;;;16.77;2.08;;;6.40;99.90;;;;;;4927421;29;20048;-90
2023/11/24 09:49:01;;;;;;;10.73;1.73;;;5.80;99.90;;;;;;4916010;29;20055;-90
2023/11/24 09:51:48;;;;;;;13.68;1.75;;;6.50;99.90;;;;;;4918083;29;20970;-89
2023/11/24 09:54:19;;;;;;;9.98;2.20;;;5.70;99.90;;;;;;4926458;29;20051;-90
2023/11/24 09:56:58;;;;;;;13.23;2.05;;;6.40;99.90;;;;;;4923794;29;20132;-88
2023/11/24 09:59:31;;;;;;;13.20;2.08;;;6.80;99.90;;;;;;4922464;29;20056;-91
2023/11/24 10:01:59;;;;;;;11.27;1.75;;;5.90;99.90;;;;;;4924999;29;20521;-90
2023/11/24 10:04:29;;;;;;;13.52;2.17;;;6.50;99.90;;;;;;4931001;29;20135;-89
2023/11/24 10:07:04;;;;;;;12.57;2.05;;;6.20;99.90;;;;;;4926164;29;20421;-89
2023/11/24 10:09:34;;;;;;;16.40;2.38;;;6.30;99.90;;;;;;4928351;29;20061;-90
2023/11/24 10:12:40;;;;;;;9.85;1.88;;;7.30;99.90;;;;;;4930046;29;20129;-89
2023/11/24 10:15:11;;;;;;;12.05;1.70;;;6.40;99.90;;;;;;4930282;29;20044;-89
2023/11/24 10:17:45;;;;;;;8.68;1.77;;;7.40;99.90;;;;;;4920540;29;20044;-90
2023/11/24 10:24:56;;;;;;;10.00;1.70;;;6.40;99.90;;;;;;4876812;29;20621;-91
2023/11/24 10:27:21;;;;;;;13.50;1.88;;;6.30;99.90;;;;;;4876022;29;20167;-90
2023/11/24 10:30:39;;;;;;;10.88;2.38;;;7.30;99.90;;;;;;4870339;29;20045;-91
2023/11/24 10:33:17;;;;;;;11.95;1.83;;;6.20;99.90;;;;;;4863295;29;20045;-90
2023/11/24 10:35:49;;;;;;;13.30;1.75;;;7.30;99.90;;;;;;4862822;29;20054;-90
2023/11/24 10:38:32;;;;;;;8.95;1.85;;;7.40;99.90;;;;;;4888290;29;20084;-89
2023/11/24 10:41:02;;;;;;;8.00;1.40;;;6.30;99.90;;;;;;4863056;29;20053;-90
2023/11/24 10:43:33;;;;;;;10.00;1.45;;;6.30;99.90;;;;;;4863074;29;20165;-89
2023/11/24 10:46:07;;;;;;;8.05;1.40;;;6.40;99.90;;;;;;4869712;29;20053;-89
2023/11/24 10:53:22;;;;;;;;;;;;;;;;;;;;;
2023/11/24 10:56:27;;;;;;;7.40;1.30;;;5.70;99.90;;;;;;4818062;29;20066;-92
2023/11/24 11:03:35;;;;;;;7.35;1.33;;;5.80;99.90;;;;;;4871173;29;20420;-92
2023/11/24 11:10:25;;;;;;;5.40;0.90;;;5.60;99.90;;;;;;4726020;30;20197;-90
2023/11/24 11:12:54;;;;;;;11.60;1.63;;;5.40;99.90;;;;;;4735478;30;20110;-92
2023/11/24 11:15:31;;;;;;;10.05;1.33;;;6.50;99.90;;;;;;4734907;30;20068;-93
2023/11/24 11:18:13;;;;;;;6.95;1.17;;;5.50;99.90;;;;;;4733897;30;20554;-92
2023/11/24 11:20:44;;;;;;;12.20;1.45;;;5.40;99.90;;;;;;4761802;30;20056;-92
2023/11/24 11:23:18;;;;;;;11.80;1.55;;;6.20;99.90;;;;;;4755334;30;20079;-93
2023/11/24 11:25:46;;;;;;;10.43;1.63;;;5.30;99.90;;;;;;4752903;30;20139;-93
2023/11/24 11:28:19;;;;;;;13.45;1.48;;;5.30;99.90;;;;;;4754953;30;20502;-92
2023/11/24 11:30:47;;;;;;;9.13;1.25;;;5.30;99.90;;;;;;4755136;30;20138;-92
2023/11/24 11:33:14;;;;;;;3.78;1.02;;;6.40;99.90;;;;;;4755588;30;20550;-91
2023/11/24 11:35:48;;;;;;;4.90;0.98;;;5.40;99.90;;;;;;4755141;30;20139;-92
2023/11/24 11:38:33;;;;;;;13.68;1.73;;;5.30;99.90;;;;;;4755161;30;20139;-92
2023/11/24 11:41:06;;;;;;;14.48;2.08;;;5.40;99.90;;;;;;4784480;29;20070;-93
2023/11/24 11:43:53;;;;;;;10.00;1.45;;;5.70;99.90;;;;;;4847629;29;20047;-92
2023/11/24 11:46:23;;;;;;;11.73;1.65;;;5.50;99.90;;;;;;4934145;29;20048;-91
2023/11/24 11:48:51;;;;;;;14.35;1.85;;;5.60;99.90;;;;;;4927597;29;20041;-92
2023/11/24 11:51:22;;;;;;;8.00;1.70;;;5.60;99.90;;;;;;4925549;29;20500;-92
2023/11/24 11:53:49;;;;;;;7.35;1.30;;;6.30;99.90;;;;;;4925400;29;20186;-94
2023/11/24 11:56:16;;;;;;;23.25;2.35;;;6.60;99.90;;;;;;4921059;29;20036;-92
2023/11/24 11:58:43;;;;;;;13.25;2.20;;;7.00;99.90;;;;;;4932710;29;20128;-95
2023/11/24 12:01:09;;;;;;;12.68;1.75;;;6.00;99.90;;;;;;4919151;29;20060;-93
2023/11/24 12:03:37;;;;;;;8.88;1.38;;;6.40;99.90;;;;;;4924677;29;20095;-92
2023/11/24 12:06:07;;;;;;;10.98;1.63;;;5.90;99.90;;;;;;4926311;29;20068;-92
2023/11/24 12:08:38;;;;;;;11.48;1.55;;;5.70;99.90;;;;;;4903507;29;20047;-90
2023/11/24 12:11:08;;;;;;;7.45;1.30;;;5.40;99.90;;;;;;4921948;29;20074;-92
2023/11/24 12:13:36;;;;;;;10.85;2.13;;;5.50;99.90;;;;;;4943560;29;20048;-92
2023/11/24 12:16:05;;;;;;;9.32;2.30;;;6.00;99.90;;;;;;4925323;29;20127;-91
2023/11/24 12:18:32;;;;;;;11.80;1.38;;;5.40;99.90;;;;;;4924861;29;20042;-91
2023/11/24 12:20:59;;;;;;;13.13;1.88;;;6.20;99.90;;;;;;4923041;29;20048;-91
2023/11/24 12:23:26;;;;;;;8.77;1.48;;;5.50;99.90;;;;;;4928556;29;20040;-93
2023/11/24 12:25:54;;;;;;;9.80;2.13;;;6.10;99.90;;;;;;4921622;29;20052;-93
2023/11/24 12:28:22;;;;;;;8.68;1.35;;;6.10;99.90;;;;;;4926386;29;20032;-93
2023/11/24 12:30:49;;;;;;;17.63;2.78;;;5.80;99.90;;;;;;4927774;29;20048;-93
2023/11/24 12:33:19;;;;;;;8.50;1.55;;;5.50;99.90;;;;;;4921620;29;20052;-91
2023/11/24 12:35:50;;;;;;;12.68;2.00;;;6.20;99.90;;;;;;4918505;29;20052;-93
2023/11/24 12:38:18;;;;;;;12.77;1.88;;;6.50;99.90;;;;;;4919043;29;20410;-93
2023/11/24 12:40:46;;;;;;;12.00;1.60;;;5.80;99.90;;;;;;4919109;29;20505;-90
2023/11/24 12:43:13;;;;;;;10.85;1.90;;;5.90;99.90;;;;;;4928310;29;20486;-90
2023/11/24 12:45:41;;;;;;;8.82;1.85;;;5.90;99.90;;;;;;4925579;29;20126;-91
2023/11/24 12:48:34;;;;;;;11.25;1.80;;;6.60;99.90;;;;;;4929028;29;20040;-91
2023/11/24 12:51:03;;;;;;;8.52;2.03;;;6.70;99.90;;;;;;4906592;29;20083;-91
2023/11/24 12:53:33;;;;;;;17.85;2.33;;;6.20;99.90;;;;;;4937708;29;20130;-90
2023/11/24 12:55:59;;;;;;;9.48;1.73;;;7.00;99.90;;;;;;4921057;29;20135;-91
2023/11/24 12:58:26;;;;;;;10.90;2.00;;;6.30;99.90;;;;;;4919286;29;20131;-90
2023/11/24 13:00:54;;;;;;;12.50;1.73;;;6.90;99.90;;;;;;4924107;29;20051;-91
2023/11/24 13:03:22;;;;;;;11.63;1.70;;;6.40;99.90;;;;;;4933866;29;20037;-91
2023/11/24 13:05:49;;;;;;;10.23;1.50;;;6.30;99.90;;;;;;4920859;29;20041;-91
2023/11/24 13:08:17;;;;;;;15.55;2.50;;;6.80;99.90;;;;;;4928259;29;20067;-92
2023/11/24 13:10:45;;;;;;;10.07;1.63;;;6.70;99.90;;;;;;4928487;29;20095;-92
2023/11/24 13:13:12;;;;;;;9.38;2.00;;;6.20;99.90;;;;;;4925372;29;20041;-93
2023/11/24 13:15:39;;;;;;;8.35;1.63;;;7.10;99.90;;;;;;4929697;29;20064;-92